Sunday, August 19, 2018, 12:28 AM GMT
Back to Local

CYMX, Montreal / Mirabel

Location: , , Canada Lat: 45.683
Local Time: 12:28 AM GMT ( 0:28 GMT) Lon: -74.033
Time Zone: GMT Elev: 269 ft

Show me the last for .
Show Decoded

2018-08-19 00:00 METAR CYMX 190000Z 14002KT 25SM SCT050 19/17 A2995 RMK SC3 SLP145 DENSITY ALT
                 800FT =
2018-08-18 23:00 METAR CYMX 182300Z 04002KT 45SM FEW040 FEW060 SCT250 24/15 A2994 RMK CU1SC1CI3
                 SC TR SLP140 DENSITY ALT 1400FT =
2018-08-18 22:00 METAR CYMX 182200Z 05005KT 010V090 45SM FEW040 FEW060 BKN250 25/15 A2993 RMK
                 CU1SC1CI3 SLP137 DENSITY ALT 1500FT =
2018-08-18 21:00 METAR CYMX 182100Z 06004KT 340V120 45SM FEW040 BKN060 BKN250 25/15 A2992 RMK
                 CU1SC4CI2 SLP133 DENSITY ALT 1500FT =
2018-08-18 20:00 METAR CYMX 182000Z 06005KT 360V140 45SM FEW045 SCT250 25/15 A2991 RMK CU1CI2
                 SLP130 DENSITY ALT 1600FT =
2018-08-18 19:00 METAR CYMX 181900Z 06004KT 330V110 45SM FEW035 FEW200 BKN260 24/16 A2992 RMK
                 CU1CI1CI5 SLP133 DENSITY ALT 1500FT =
2018-08-18 18:00 METAR CYMX 181800Z 06006G15KT 020V100 45SM FEW030 SCT240 24/14 A2993 RMK CU2CI2
                 SLP137 DENSITY ALT 1400FT =
2018-08-18 17:00 METAR CYMX 181700Z 02005KT 320V110 45SM FEW033 FEW180 SCT220 OVC260 23/14 A2993
                 RMK CU1AC1CI1CI5 SLP138 DENSITY ALT 1200FT =
2018-08-18 16:00 METAR CYMX 181600Z 03003KT 330V120 35SM FEW030 BKN200 OVC240 22/15 A2994 RMK
                 CU1CS6CI1 SLP139 DENSITY ALT 1200FT =
2018-08-18 15:00 METAR CYMX 181500Z 02005KT 340V080 45SM SCT024 BKN160 21/14 A2994 RMK CU3AS4
                 SLP139 DENSITY ALT 1000FT =
2018-08-18 14:00 METAR CYMX 181400Z 03005KT 340V080 35SM FEW020 BKN250 20/14 A2993 RMK CF1CS7 CF
                 TR SLP138 DENSITY ALT 900FT =
2018-08-18 13:00 METAR CYMX 181300Z 01003KT 320V050 45SM FEW030 BKN240 19/15 A2994 RMK SC1CI5
                 SLP139 DENSITY ALT 800FT =
2018-08-18 12:00 METAR CYMX 181200Z 35004KT 35SM FEW035 SCT220 BKN250 18/14 A2993 RMK SC1CS3CI4
                 SC TR SLP137 DENSITY ALT 700FT =
2018-08-18 11:00 METAR CYMX 181100Z 32004KT 45SM FEW030 SCT120 BKN180 BKN240 16/13 A2992 RMK
                 SC2AC1AC3CI1 SLP135 DENSITY ALT 500FT =
2018-08-18 10:00 METAR CYMX 181000Z 34004KT 45SM FEW030 BKN120 BKN210 16/14 A2991 RMK SC2AC3CI2
                 SLP131 DENSITY ALT 500FT =
2018-08-18 09:00 METAR CYMX 180900Z 33004KT 25SM OVC028 17/15 A2989 RMK SC8 SLP125 DENSITY ALT
                 600FT =
2018-08-18 08:00 METAR CYMX 180800Z 36004KT 25SM BKN020 OVC030 17/14 A2988 RMK SC7SC1 SLP120
                 DENSITY ALT 700FT =
2018-08-18 07:00 METAR CYMX 180700Z 35006KT 25SM OVC022 17/15 A2988 RMK SC8 SLP119 DENSITY ALT
                 700FT =
2018-08-18 06:00 METAR CYMX 180600Z 02003KT 310V080 25SM OVC020 17/15 A2988 RMK SC8 SLP119
                 DENSITY ALT 700FT =
2018-08-18 05:00 METAR CYMX 180500Z 01005KT 340V050 25SM OVC019 18/16 A2988 RMK SC8 SLP119
                 DENSITY ALT 700FT =
2018-08-18 04:00 METAR CYMX 180400Z 01003KT 340V100 25SM BKN020 OVC038 17/16 A2987 RMK SC5SC3
                 SLP118 DENSITY ALT 700FT =
2018-08-18 03:00 METAR CYMX 180300Z 01005KT 25SM OVC033 17/16 A2986 RMK SC8 SLP113 DENSITY ALT
                 700FT =
2018-08-18 02:12 METAR CYMX 180212Z 07004KT 320V120 25SM FEW012 SCT020 OVC035 18/17 A2985 RMK
                 SF2SC2SC4 SLP109 DENSITY ALT 800FT =
2018-08-18 02:00 METAR CYMX 180200Z 01005KT 330V060 25SM BKN010 OVC023 18/17 A2985 RMK SC5SC3
                 SLP110 DENSITY ALT 800FT =
2018-08-18 01:37 METAR CYMX 180137Z 02006KT 330V100 15SM BKN010 OVC020 18/17 A2986 RMK SF6SC2
                 SLP113 DENSITY ALT 800FT =
2018-08-18 01:00 METAR CYMX 180100Z 01003KT 330V060 8SM -SHRA SCT004 BKN012 OVC020 19/19 A2986
                 RMK SF3SC3SC2 CVCTV CLD EMBD SLP112 DENSITY ALT 900FT =
2018-08-18 00:44 METAR CYMX 180044Z 01004KT 340V060 3SM R06/4000VP6000FT/U -SHRA BR BKN003 OVC020
                 19/19 A2985 RMK SF6SC2 CVCTV CLD EMBD SLP110 DENSITY ALT 900FT =

Support USWX by starting your Amazon purchase here.